Time;durP1;ratioP1;P1;durP2;ratioP2;P2;SDS_P1;SDS_P2;PMS_P1;PMS_P2;Temp;Humidity;BMP_temperature;BMP_pressure;BME280_temperature;BME280_humidity;BME280_pressure;Samples;Min_cycle;Max_cycle;Signal;HPM_P1;HPM_P2
2022/12/17 13:10:22;;;;;;;53.63;29.50;;;;;;;;;;10318146;28;20087;-61
2022/12/17 13:15:26;;;;;;;25.90;20.35;;;;;;;;;;10291800;28;20075;-62
2022/12/17 13:20:30;;;;;;;18.15;16.25;;;;;;;;;;10319569;28;20071;-62
2022/12/17 13:25:29;;;;;;;39.40;25.48;;;;;;;;;;10318711;28;20518;-62
2022/12/17 13:30:34;;;;;;;23.27;20.15;;;;;;;;;;10318639;28;20068;-62
2022/12/17 13:35:37;;;;;;;21.27;14.77;;;;;;;;;;10318724;28;20075;-62
2022/12/17 13:40:41;;;;;;;12.02;10.32;;;;;;;;;;10316397;28;20075;-61
2022/12/17 13:45:43;;;;;;;15.57;13.75;;;;;;;;;;10317619;28;20071;-62
2022/12/17 13:50:41;;;;;;;24.70;21.88;;;;;;;;;;10318023;28;20076;-61
2022/12/17 13:55:40;;;;;;;39.78;35.75;;;;;;;;;;10317187;28;20075;-60
2022/12/17 14:00:38;;;;;;;37.30;33.47;;;;;;;;;;10317476;28;20072;-62
2022/12/17 14:05:41;;;;;;;18.73;16.70;;;;;;;;;;10317008;28;20072;-61
2022/12/17 14:10:43;;;;;;;20.48;18.27;;;;;;;;;;10316008;28;20124;-62
2022/12/17 14:15:45;;;;;;;24.63;20.13;;;;;;;;;;10316375;28;20083;-62
2022/12/17 14:20:44;;;;;;;15.38;12.98;;;;;;;;;;10316682;28;20072;-61
2022/12/17 14:25:44;;;;;;;28.83;19.20;;;;;;;;;;10316765;28;20036;-61
2022/12/17 14:30:43;;;;;;;23.67;20.35;;;;;;;;;;10315900;28;20071;-61
2022/12/17 14:36:04;;;;;;;26.92;23.00;;;;;;;;;;10316456;28;20072;-63
2022/12/17 14:42:24;;;;;;;50.25;45.60;;;;;;;;;;10312285;28;20095;-62
2022/12/17 14:46:21;;;;;;;10.73;9.60;;;;;;;;;;10314877;28;20467;-62
2022/12/17 14:51:23;;;;;;;17.00;14.73;;;;;;;;;;10313673;28;20068;-62
2022/12/17 14:56:22;;;;;;;18.70;16.08;;;;;;;;;;10307193;28;20068;-62
2022/12/17 15:01:20;;;;;;;30.63;26.63;;;;;;;;;;10313795;28;20068;-62
2022/12/17 15:06:19;;;;;;;33.95;30.30;;;;;;;;;;10313474;28;20064;-60
2022/12/17 15:11:19;;;;;;;52.53;38.53;;;;;;;;;;10312389;28;20326;-57
2022/12/17 15:16:18;;;;;;;42.65;37.30;;;;;;;;;;10312196;28;20052;-58
2022/12/17 15:21:17;;;;;;;33.40;28.63;;;;;;;;;;10304015;28;20438;-65
2022/12/17 15:26:16;;;;;;;23.20;20.70;;;;;;;;;;10306555;28;20072;-64
2022/12/17 15:31:15;;;;;;;51.67;38.55;;;;;;;;;;10314350;28;20075;-65
2022/12/17 15:36:21;;;;;;;40.13;28.05;;;;;;;;;;10311906;28;20548;-64
2022/12/17 15:46:36;;;;;;;30.08;24.85;;;;;;;;;;10314789;28;20083;-65
2022/12/17 15:51:34;;;;;;;25.23;21.52;;;;;;;;;;10316232;28;20076;-63
2022/12/17 15:56:33;;;;;;;31.67;24.92;;;;;;;;;;10319828;28;20056;-65
2022/12/17 16:01:31;;;;;;;24.27;21.02;;;;;;;;;;10314678;28;20079;-64
2022/12/17 16:06:32;;;;;;;42.80;34.53;;;;;;;;;;10318775;28;20076;-63
2022/12/17 16:11:30;;;;;;;35.22;28.77;;;;;;;;;;10315268;28;20079;-63
2022/12/17 16:16:29;;;;;;;26.05;21.92;;;;;;;;;;10320468;28;20532;-64
2022/12/17 16:21:28;;;;;;;31.42;25.50;;;;;;;;;;10321710;28;20087;-63
2022/12/17 16:26:27;;;;;;;21.63;18.08;;;;;;;;;;10319179;28;20045;-63
2022/12/17 16:31:26;;;;;;;21.77;18.85;;;;;;;;;;10321206;28;20079;-64
2022/12/17 16:36:24;;;;;;;24.60;19.52;;;;;;;;;;10315011;28;20072;-64
2022/12/17 16:41:22;;;;;;;37.78;29.00;;;;;;;;;;10310685;28;20125;-63
2022/12/17 16:46:26;;;;;;;40.38;32.63;;;;;;;;;;10311513;28;20072;-64
2022/12/17 16:51:26;;;;;;;40.15;32.90;;;;;;;;;;10314554;28;20513;-64
2022/12/17 16:56:27;;;;;;;37.05;31.25;;;;;;;;;;10314481;28;20079;-64
2022/12/17 17:01:28;;;;;;;50.40;42.38;;;;;;;;;;10312124;28;20525;-64
2022/12/17 17:06:26;;;;;;;52.97;43.55;;;;;;;;;;10311811;28;20157;-65
2022/12/17 17:11:30;;;;;;;52.00;38.70;;;;;;;;;;10310900;28;20079;-64
2022/12/17 17:16:30;;;;;;;43.28;35.47;;;;;;;;;;10311291;28;20349;-64
2022/12/17 17:21:29;;;;;;;46.65;35.30;;;;;;;;;;10312349;28;20068;-64
2022/12/17 17:26:28;;;;;;;41.05;31.42;;;;;;;;;;10311687;28;20076;-65
2022/12/17 17:31:26;;;;;;;38.20;32.80;;;;;;;;;;10311250;28;20080;-64
2022/12/17 17:36:46;;;;;;;48.90;38.88;;;;;;;;;;10310297;28;20087;-64
2022/12/17 17:41:44;;;;;;;54.80;43.50;;;;;;;;;;10311652;28;20060;-63
2022/12/17 17:46:42;;;;;;;71.47;50.72;;;;;;;;;;10307931;28;20088;-65
2022/12/17 17:51:41;;;;;;;48.72;33.90;;;;;;;;;;10310373;28;20098;-64
2022/12/17 17:57:01;;;;;;;33.25;27.85;;;;;;;;;;10310356;28;20509;-65
2022/12/17 18:01:59;;;;;;;41.25;36.83;;;;;;;;;;10311757;28;20065;-64
2022/12/17 18:06:58;;;;;;;43.83;37.28;;;;;;;;;;10313026;28;20101;-64
2022/12/17 18:17:45;;;;;;;74.22;47.83;;;;;;;;;;10200929;28;20458;-65
2022/12/17 18:22:44;;;;;;;104.25;56.85;;;;;;;;;;10313364;28;20458;-65
2022/12/17 18:27:45;;;;;;;86.93;51.47;;;;;;;;;;10311029;28;20087;-65
2022/12/17 18:32:43;;;;;;;58.55;40.50;;;;;;;;;;10309477;28;20072;-65
2022/12/17 18:37:41;;;;;;;62.85;44.15;;;;;;;;;;10308267;28;20482;-65
2022/12/17 18:47:57;;;;;;;26.35;22.33;;;;;;;;;;10310454;28;20552;-66
2022/12/17 18:52:55;;;;;;;28.67;23.77;;;;;;;;;;10307235;28;20083;-63
2022/12/17 18:57:53;;;;;;;22.15;19.77;;;;;;;;;;10307836;28;20067;-64
2022/12/17 19:02:52;;;;;;;25.48;19.88;;;;;;;;;;10306596;28;20068;-64
2022/12/17 19:07:51;;;;;;;18.88;14.48;;;;;;;;;;10304836;28;20087;-64
2022/12/17 19:12:50;;;;;;;17.02;15.25;;;;;;;;;;10304674;28;20954;-65
2022/12/17 19:17:49;;;;;;;20.38;15.90;;;;;;;;;;10304851;28;20075;-65
2022/12/17 19:22:48;;;;;;;17.92;15.85;;;;;;;;;;10280292;28;20076;-64
2022/12/17 19:27:47;;;;;;;16.90;13.82;;;;;;;;;;10287941;28;20075;-65
2022/12/17 19:32:45;;;;;;;15.63;12.88;;;;;;;;;;10307327;28;20526;-64
2022/12/17 19:37:43;;;;;;;14.65;13.10;;;;;;;;;;10306626;28;20070;-64
2022/12/17 19:42:42;;;;;;;20.80;15.48;;;;;;;;;;10304598;28;20563;-64
2022/12/17 19:47:41;;;;;;;19.55;13.63;;;;;;;;;;10308729;28;20095;-64
2022/12/17 19:52:39;;;;;;;15.02;13.30;;;;;;;;;;10311248;28;20510;-64
2022/12/17 19:57:38;;;;;;;14.85;13.25;;;;;;;;;;10307229;28;20068;-65
2022/12/17 20:02:36;;;;;;;14.73;12.20;;;;;;;;;;10308013;28;20076;-64
2022/12/17 20:07:36;;;;;;;16.23;13.15;;;;;;;;;;10302869;28;20067;-65
2022/12/17 20:12:34;;;;;;;18.95;15.52;;;;;;;;;;10302243;28;20076;-65
2022/12/17 20:17:32;;;;;;;20.77;16.27;;;;;;;;;;10302346;28;20061;-64
2022/12/17 20:22:30;;;;;;;19.48;15.65;;;;;;;;;;10307263;28;20080;-65
2022/12/17 20:27:30;;;;;;;15.23;12.82;;;;;;;;;;10304916;28;20071;-64
2022/12/17 20:32:28;;;;;;;24.58;18.45;;;;;;;;;;10303586;28;20072;-64
2022/12/17 20:37:26;;;;;;;18.92;12.32;;;;;;;;;;10308097;28;20073;-64
2022/12/17 20:42:24;;;;;;;17.75;14.13;;;;;;;;;;10315786;28;20068;-64
2022/12/17 20:47:24;;;;;;;17.92;13.85;;;;;;;;;;10311074;28;20665;-64
2022/12/17 20:52:22;;;;;;;35.22;25.48;;;;;;;;;;10309391;28;20076;-65
2022/12/17 20:57:20;;;;;;;15.32;12.57;;;;;;;;;;10307662;28;20086;-63
2022/12/17 21:02:19;;;;;;;12.80;10.70;;;;;;;;;;10309225;28;20091;-63
2022/12/17 21:07:21;;;;;;;11.45;10.23;;;;;;;;;;10307206;28;20505;-64
2022/12/17 21:12:19;;;;;;;15.43;12.13;;;;;;;;;;10310916;28;20076;-63
2022/12/17 21:17:17;;;;;;;15.00;12.18;;;;;;;;;;10312857;28;20057;-65
2022/12/17 21:22:16;;;;;;;11.73;9.48;;;;;;;;;;10310424;28;20072;-66
2022/12/17 21:27:16;;;;;;;15.05;10.57;;;;;;;;;;10312523;28;20067;-64
2022/12/17 21:32:14;;;;;;;12.82;11.02;;;;;;;;;;10310520;28;20114;-63
2022/12/17 21:37:12;;;;;;;14.90;10.82;;;;;;;;;;10313940;28;20079;-64
2022/12/17 21:47:27;;;;;;;12.30;9.45;;;;;;;;;;10311306;28;20072;-64
2022/12/17 21:52:25;;;;;;;14.48;11.15;;;;;;;;;;10314280;28;20079;-64
2022/12/17 21:57:24;;;;;;;13.35;10.32;;;;;;;;;;10310522;28;20086;-63
2022/12/17 22:02:22;;;;;;;15.57;10.98;;;;;;;;;;10310651;28;20100;-65
2022/12/17 22:07:22;;;;;;;9.75;8.35;;;;;;;;;;10306909;28;20088;-63
2022/12/17 22:17:40;;;;;;;18.42;12.27;;;;;;;;;;10303405;28;20068;-63
2022/12/17 22:22:40;;;;;;;14.18;11.05;;;;;;;;;;10308429;28;20067;-65
2022/12/17 22:27:39;;;;;;;21.52;15.68;;;;;;;;;;10300119;28;20080;-65
2022/12/17 22:37:55;;;;;;;20.40;15.20;;;;;;;;;;10314077;28;20068;-63
2022/12/17 22:43:31;;;;;;;11.82;10.20;;;;;;;;;;10308926;28;20060;-63
2022/12/17 22:48:49;;;;;;;15.05;12.07;;;;;;;;;;10304800;28;20084;-63
2022/12/17 22:53:49;;;;;;;13.02;11.23;;;;;;;;;;10307553;28;20076;-65
2022/12/17 22:58:48;;;;;;;13.75;11.68;;;;;;;;;;10303490;28;20064;-63
2022/12/17 23:03:46;;;;;;;16.48;13.43;;;;;;;;;;10297344;28;20080;-64
2022/12/17 23:08:44;;;;;;;16.33;13.23;;;;;;;;;;10297778;28;20083;-63
2022/12/17 23:13:44;;;;;;;19.75;15.80;;;;;;;;;;10292762;28;20072;-65
2022/12/17 23:18:44;;;;;;;18.90;14.30;;;;;;;;;;10292482;28;20067;-64
2022/12/17 23:23:42;;;;;;;18.55;14.90;;;;;;;;;;10299320;28;20442;-65
2022/12/17 23:28:40;;;;;;;18.88;14.45;;;;;;;;;;10302933;28;20071;-65
2022/12/17 23:33:40;;;;;;;28.15;21.08;;;;;;;;;;10315087;28;20076;-64
2022/12/17 23:38:39;;;;;;;16.98;13.73;;;;;;;;;;10312422;28;20068;-65
2022/12/17 23:43:38;;;;;;;18.88;14.05;;;;;;;;;;10305915;28;20068;-65
2022/12/17 23:48:37;;;;;;;14.23;12.02;;;;;;;;;;10305344;28;20569;-65
2022/12/17 23:53:44;;;;;;;15.50;13.15;;;;;;;;;;10306033;28;20103;-65
2022/12/17 23:58:43;;;;;;;17.48;13.93;;;;;;;;;;10303411;28;20084;-65
